createdAt,value
2023-02-09T00:01:05.974Z,30.40
2023-02-09T00:03:34.764Z,30.00
2023-02-09T00:06:02.755Z,29.23
2023-02-09T00:08:29.936Z,30.97
2023-02-09T00:10:59.853Z,28.83
2023-02-09T00:13:27.027Z,28.87
2023-02-09T00:15:55.482Z,24.93
2023-02-09T00:18:22.861Z,25.07
2023-02-09T00:21:00.643Z,27.53
2023-02-09T00:23:29.361Z,28.43
2023-02-09T00:25:59.583Z,26.63
2023-02-09T00:28:26.324Z,29.33
2023-02-09T00:30:53.299Z,25.80
2023-02-09T00:33:22.658Z,24.67
2023-02-09T00:35:49.450Z,25.17
2023-02-09T00:38:20.048Z,23.70
2023-02-09T00:40:47.977Z,27.90
2023-02-09T00:43:14.785Z,25.97
2023-02-09T00:45:41.608Z,29.20
2023-02-09T00:48:09.660Z,25.00
2023-02-09T00:50:36.333Z,25.50
2023-02-09T00:53:05.949Z,22.43
2023-02-09T00:55:32.536Z,28.53
2023-02-09T00:57:59.157Z,25.73
2023-02-09T01:00:26.379Z,20.93
2023-02-09T01:02:57.501Z,28.50
2023-02-09T01:05:24.589Z,27.10
2023-02-09T01:07:51.401Z,25.93
2023-02-09T01:10:18.323Z,23.83
2023-02-09T01:12:45.065Z,29.13
2023-02-09T01:15:13.070Z,28.37
2023-02-09T01:17:39.980Z,22.57
2023-02-09T01:20:08.501Z,28.13
2023-02-09T01:22:38.878Z,26.17
2023-02-09T01:25:06.945Z,25.77
2023-02-09T01:27:33.692Z,25.43
2023-02-09T01:30:00.442Z,24.30
2023-02-09T01:32:27.204Z,26.07
2023-02-09T01:34:54.529Z,24.93
2023-02-09T01:37:21.581Z,23.73
2023-02-09T01:39:48.403Z,27.30
2023-02-09T01:42:16.442Z,24.23
2023-02-09T01:44:43.109Z,19.03
2023-02-09T01:47:17.495Z,22.60
2023-02-09T01:49:47.019Z,27.07
2023-02-09T01:52:18.748Z,30.37
2023-02-09T01:54:52.821Z,25.83
2023-02-09T01:57:25.629Z,23.95
2023-02-09T01:59:58.834Z,26.67
2023-02-09T02:02:25.669Z,23.40
2023-02-09T02:04:52.632Z,22.33
2023-02-09T02:07:28.411Z,25.57
2023-02-09T02:09:55.469Z,25.43
2023-02-09T02:12:22.697Z,23.80
2023-02-09T02:14:49.369Z,18.43
2023-02-09T02:17:42.165Z,24.23
2023-02-09T02:20:27.523Z,24.07
2023-02-09T02:23:16.064Z,26.67
2023-02-09T02:26:10.026Z,22.30
2023-02-09T02:28:52.682Z,25.50
2023-02-09T02:31:37.685Z,23.00
2023-02-09T02:34:18.773Z,22.23
2023-02-09T02:36:58.952Z,20.23
2023-02-09T02:39:41.235Z,21.03
2023-02-09T02:42:33.049Z,21.57
2023-02-09T02:45:05.992Z,23.13
2023-02-09T02:47:34.854Z,25.13
2023-02-09T02:50:08.149Z,24.07
2023-02-09T02:52:34.797Z,21.38
2023-02-09T02:55:06.564Z,18.83
2023-02-09T02:57:34.074Z,19.00
2023-02-09T03:00:04.028Z,24.43
2023-02-09T03:02:34.222Z,18.20
2023-02-09T03:05:01.713Z,20.03
2023-02-09T03:07:28.414Z,19.77
2023-02-09T03:09:56.238Z,21.80
2023-02-09T03:13:00.352Z,22.17
2023-02-09T03:15:58.905Z,21.33
2023-02-09T03:18:33.565Z,21.30
2023-02-09T03:21:12.673Z,24.50
2023-02-09T03:23:48.152Z,27.23
2023-02-09T03:26:19.389Z,20.97
2023-02-09T03:28:48.947Z,24.23
2023-02-09T03:31:15.811Z,22.80
2023-02-09T03:33:42.916Z,22.33
2023-02-09T03:36:15.530Z,20.07
2023-02-09T03:38:42.246Z,24.03
2023-02-09T03:41:08.908Z,21.97
2023-02-09T03:43:54.680Z,22.93
2023-02-09T03:46:21.472Z,21.53
2023-02-09T03:48:50.018Z,23.90
2023-02-09T03:51:16.987Z,19.47
2023-02-09T03:53:43.730Z,24.90
2023-02-09T03:56:10.406Z,23.33
2023-02-09T03:58:37.174Z,19.40
2023-02-09T04:01:05.420Z,22.50
2023-02-09T04:03:32.361Z,17.50
2023-02-09T04:06:01.846Z,22.03
2023-02-09T04:08:30.160Z,18.33
2023-02-09T04:10:57.745Z,19.80
2023-02-09T04:13:25.765Z,17.87
2023-02-09T04:15:52.702Z,20.23
2023-02-09T04:18:19.340Z,22.23
2023-02-09T04:20:46.383Z,21.03
2023-02-09T04:23:13.200Z,20.17
2023-02-09T04:25:39.827Z,20.10
2023-02-09T04:28:06.452Z,19.30
2023-02-09T04:30:33.149Z,18.40
2023-02-09T04:32:59.760Z,19.33
2023-02-09T04:35:26.378Z,20.40
2023-02-09T04:37:52.954Z,18.00
2023-02-09T04:40:19.592Z,21.27
2023-02-09T04:42:46.761Z,17.60
2023-02-09T04:45:13.448Z,22.63
2023-02-09T04:47:40.146Z,20.33
2023-02-09T04:50:06.901Z,17.63
2023-02-09T04:52:34.039Z,22.00
2023-02-09T04:55:00.671Z,21.43
2023-02-09T04:57:45.916Z,19.83
2023-02-09T05:00:13.289Z,17.93
2023-02-09T05:02:39.977Z,21.87
2023-02-09T05:05:06.646Z,22.63
2023-02-09T05:07:33.246Z,19.60
2023-02-09T05:09:59.890Z,18.03
2023-02-09T05:12:26.614Z,17.87
2023-02-09T05:14:53.312Z,21.90
2023-02-09T05:17:21.182Z,15.73
2023-02-09T05:19:48.416Z,19.20
2023-02-09T05:22:15.078Z,18.90
2023-02-09T05:24:41.732Z,17.73
2023-02-09T05:27:08.351Z,17.73
2023-02-09T05:29:35.078Z,20.30
2023-02-09T05:32:01.757Z,20.57
2023-02-09T05:34:28.435Z,17.93
2023-02-09T05:36:55.077Z,20.87
2023-02-09T05:39:21.703Z,17.77
2023-02-09T05:42:06.934Z,17.50
2023-02-09T05:44:33.560Z,18.57
2023-02-09T05:47:00.173Z,19.93
2023-02-09T05:49:26.787Z,16.53
2023-02-09T05:51:53.402Z,17.40
2023-02-09T05:54:20.040Z,19.00
2023-02-09T05:56:46.792Z,18.13
2023-02-09T05:59:13.732Z,12.60
2023-02-09T06:01:40.355Z,16.43
2023-02-09T06:04:07.103Z,19.90
2023-02-09T06:06:33.673Z,17.53
2023-02-09T06:09:00.228Z,21.00
2023-02-09T06:11:27.181Z,16.53
2023-02-09T06:13:53.802Z,17.43
2023-02-09T06:16:20.463Z,17.20
2023-02-09T06:18:47.070Z,18.77
2023-02-09T06:21:13.718Z,17.67
2023-02-09T06:23:40.305Z,21.07
2023-02-09T06:26:11.563Z,18.63
2023-02-09T06:28:38.666Z,17.40
2023-02-09T06:31:05.943Z,21.10
2023-02-09T06:33:34.378Z,20.20
2023-02-09T06:36:01.586Z,21.20
2023-02-09T06:38:31.124Z,18.13
2023-02-09T06:40:57.879Z,17.70
2023-02-09T06:43:24.484Z,18.90
2023-02-09T06:45:51.144Z,21.07
2023-02-09T06:48:17.999Z,18.57
2023-02-09T06:50:45.159Z,20.93
2023-02-09T06:53:12.242Z,21.97
2023-02-09T06:55:38.867Z,23.03
2023-02-09T06:58:05.464Z,20.53
2023-02-09T07:00:32.199Z,21.10
2023-02-09T07:02:59.404Z,17.53
2023-02-09T07:05:26.339Z,20.60
2023-02-09T07:07:53.006Z,19.40
2023-02-09T07:10:19.711Z,23.90
2023-02-09T07:12:46.302Z,19.47
2023-02-09T07:15:13.789Z,19.00
2023-02-09T07:17:40.791Z,21.27
2023-02-09T07:20:09.130Z,22.17
2023-02-09T07:22:35.790Z,20.20
2023-02-09T07:25:02.411Z,24.23
2023-02-09T07:27:29.036Z,19.93
2023-02-09T07:29:55.749Z,23.40
2023-02-09T07:32:25.308Z,23.67
2023-02-09T07:34:51.922Z,23.33
2023-02-09T07:37:18.531Z,24.10
2023-02-09T08:44:11.041Z,19.83
2023-02-09T08:46:37.816Z,20.03
2023-02-09T08:49:04.628Z,22.00
2023-02-09T08:51:31.402Z,21.83
2023-02-09T08:53:58.019Z,21.20
2023-02-09T08:56:24.768Z,20.43
2023-02-09T08:58:51.442Z,21.77
2023-02-09T09:01:18.159Z,17.90
2023-02-09T09:03:44.889Z,21.23
2023-02-09T09:06:12.223Z,17.70
2023-02-09T09:08:40.060Z,21.67
2023-02-09T09:11:07.385Z,19.23
2023-02-09T09:13:34.047Z,20.40
2023-02-09T09:16:00.726Z,21.40
2023-02-09T09:18:27.303Z,19.67
2023-02-09T09:20:56.228Z,19.00
2023-02-09T09:23:23.096Z,19.10
2023-02-09T09:25:52.816Z,16.20
2023-02-09T09:28:19.476Z,18.40
2023-02-09T09:30:46.212Z,16.80
2023-02-09T09:33:12.977Z,17.67
2023-02-09T09:35:39.822Z,20.43
2023-02-09T09:38:06.402Z,20.00
2023-02-09T09:40:35.318Z,16.87
2023-02-09T09:43:08.057Z,16.30
2023-02-09T09:45:37.225Z,15.77
2023-02-09T09:48:04.252Z,20.43
2023-02-09T09:50:39.366Z,23.33
2023-02-09T09:53:28.728Z,15.97
2023-02-09T09:55:56.731Z,16.93
2023-02-09T09:58:23.503Z,19.47
2023-02-09T10:00:50.355Z,16.33
2023-02-09T10:03:19.609Z,12.13
2023-02-09T10:06:00.491Z,13.40
2023-02-09T10:09:02.577Z,15.60
2023-02-09T10:11:34.016Z,15.07
2023-02-09T10:14:00.663Z,14.57
2023-02-09T10:16:30.571Z,12.60
2023-02-09T10:19:02.207Z,16.37
2023-02-09T10:21:34.228Z,15.00
2023-02-09T10:24:00.773Z,12.77
2023-02-09T10:26:33.274Z,16.00
2023-02-09T10:29:18.420Z,13.90
2023-02-09T10:31:47.976Z,13.43
2023-02-09T10:34:20.924Z,15.60
2023-02-09T10:36:54.961Z,14.30
2023-02-09T10:39:24.257Z,14.48
2023-02-09T10:41:53.126Z,14.43
2023-02-09T10:44:25.802Z,13.13
2023-02-09T10:47:19.045Z,18.53
2023-02-09T10:49:55.991Z,13.23
2023-02-09T10:52:24.766Z,12.13
2023-02-09T10:54:57.351Z,15.00
2023-02-09T10:57:36.410Z,14.53
2023-02-09T11:00:29.635Z,14.90
2023-02-09T11:03:01.559Z,13.97
2023-02-09T11:05:32.038Z,12.43
2023-02-09T11:08:21.580Z,14.13
2023-02-09T11:10:56.437Z,13.63
2023-02-09T11:13:25.165Z,14.83
2023-02-09T11:16:33.555Z,13.83
2023-02-09T11:19:22.477Z,11.90
2023-02-09T11:22:03.003Z,15.60
2023-02-09T11:25:00.672Z,14.30
2023-02-09T11:27:53.681Z,14.50
2023-02-09T11:30:48.080Z,15.13
2023-02-09T11:33:39.024Z,14.68
2023-02-09T11:36:33.770Z,13.27
2023-02-09T11:39:20.449Z,13.93
2023-02-09T11:42:18.488Z,12.87
2023-02-09T11:44:54.293Z,11.70
2023-02-09T11:47:33.066Z,12.97
2023-02-09T11:50:02.367Z,13.77
2023-02-09T11:52:37.720Z,13.50
2023-02-09T11:55:18.214Z,12.90
2023-02-09T11:57:49.887Z,13.67
2023-02-09T12:00:20.800Z,12.20
2023-02-09T12:02:53.524Z,11.87
2023-02-09T12:05:21.238Z,11.87
2023-02-09T12:07:54.104Z,14.07
2023-02-09T12:10:29.006Z,14.50
2023-02-09T12:13:02.205Z,12.93
2023-02-09T12:15:39.021Z,13.83
2023-02-09T12:18:13.528Z,14.00
2023-02-09T12:20:40.139Z,11.80
2023-02-09T12:23:32.462Z,11.67
2023-02-09T12:26:21.593Z,12.83
2023-02-09T12:29:03.528Z,13.77
2023-02-09T12:31:31.581Z,11.57
2023-02-09T12:33:58.166Z,15.03
2023-02-09T12:36:33.583Z,12.47
2023-02-09T12:39:32.663Z,12.87
2023-02-09T12:42:02.254Z,12.50
2023-02-09T12:44:28.785Z,12.93
2023-02-09T12:46:57.859Z,12.20
2023-02-09T12:49:27.431Z,12.30
2023-02-09T12:52:03.057Z,13.73
2023-02-09T12:54:44.146Z,14.63
2023-02-09T12:57:17.049Z,11.80
2023-02-09T12:59:50.127Z,15.40
2023-02-09T13:02:49.762Z,13.13
2023-02-09T13:05:23.545Z,13.07
2023-02-09T13:08:06.936Z,11.63
2023-02-09T13:10:48.856Z,18.67
2023-02-09T13:13:30.482Z,15.40
2023-02-09T13:16:03.388Z,14.00
2023-02-09T13:18:46.664Z,11.07
2023-02-09T13:21:32.280Z,13.57
2023-02-09T13:24:22.542Z,14.83
2023-02-09T13:26:53.233Z,16.90
2023-02-09T13:29:22.534Z,12.90
2023-02-09T13:32:13.416Z,14.93
2023-02-09T13:34:58.829Z,13.87
2023-02-09T13:37:43.012Z,12.10
2023-02-09T13:40:19.589Z,10.80
2023-02-09T13:43:13.332Z,12.60
2023-02-09T13:45:54.745Z,17.20
2023-02-09T13:48:32.957Z,16.30
2023-02-09T13:51:02.672Z,12.90
2023-02-09T13:53:30.740Z,12.10
2023-02-09T13:56:00.128Z,11.50
2023-02-09T13:58:35.086Z,14.33
2023-02-09T14:01:11.587Z,11.43
2023-02-09T14:03:58.815Z,13.03
2023-02-09T14:06:33.493Z,14.40
2023-02-09T14:09:00.468Z,12.40
2023-02-09T14:11:42.731Z,12.37
2023-02-09T14:14:19.319Z,12.47
2023-02-09T14:16:53.349Z,13.63
2023-02-09T14:21:53.011Z,10.93
2023-02-09T14:24:26.354Z,13.57
2023-02-09T14:27:03.916Z,15.80
2023-02-09T14:29:32.471Z,13.00
2023-02-09T14:32:32.435Z,13.00
2023-02-09T14:34:59.662Z,15.73
2023-02-09T14:37:30.608Z,16.97
2023-02-09T14:40:04.641Z,17.60
2023-02-09T14:42:32.974Z,18.75
2023-02-09T14:45:27.235Z,23.50
2023-02-09T14:47:53.945Z,18.75
2023-02-09T14:50:23.574Z,14.90
2023-02-09T14:52:53.645Z,15.10
2023-02-09T14:55:28.431Z,12.20
2023-02-09T14:57:55.127Z,11.07
2023-02-09T15:00:23.269Z,10.77
2023-02-09T15:02:51.634Z,15.57
2023-02-09T15:05:20.003Z,13.57
2023-02-09T15:07:49.530Z,13.27
2023-02-09T15:10:33.823Z,10.77
2023-02-09T15:13:02.507Z,13.15
2023-02-09T15:15:29.384Z,13.73
2023-02-09T15:17:57.636Z,12.53
2023-02-09T15:20:25.249Z,13.77
2023-02-09T15:22:53.456Z,12.27
2023-02-09T15:25:20.257Z,12.87
2023-02-09T15:27:52.670Z,11.77
2023-02-09T15:30:30.781Z,14.03
2023-02-09T15:32:57.545Z,15.63
2023-02-09T15:35:26.572Z,12.63
2023-02-09T15:37:56.152Z,12.33
2023-02-09T15:40:53.084Z,13.00
2023-02-09T15:43:40.755Z,11.97
2023-02-09T15:46:27.700Z,11.47
2023-02-09T15:48:54.380Z,14.37
2023-02-09T15:51:22.379Z,10.30
2023-02-09T15:53:49.102Z,13.97
2023-02-09T15:56:16.085Z,14.23
2023-02-09T15:58:44.851Z,10.23
2023-02-09T16:01:13.953Z,11.40
2023-02-09T16:03:40.795Z,13.00
2023-02-09T16:06:17.221Z,12.37
2023-02-09T16:08:44.425Z,12.27
2023-02-09T16:11:18.533Z,11.50
2023-02-09T16:13:45.132Z,14.68
2023-02-09T16:16:17.486Z,12.13
2023-02-09T16:18:45.471Z,16.23
2023-02-09T16:21:30.360Z,20.17
2023-02-09T16:23:59.021Z,21.30
2023-02-09T16:26:27.395Z,15.00
2023-02-09T16:28:54.307Z,12.13
2023-02-09T16:31:21.880Z,11.50
2023-02-09T16:33:50.207Z,12.03
2023-02-09T16:36:19.666Z,13.20
2023-02-09T16:38:46.852Z,9.93
2023-02-09T16:41:34.030Z,14.90
2023-02-09T16:44:01.868Z,18.43
2023-02-09T16:46:29.765Z,16.77
2023-02-09T16:48:57.492Z,17.27
2023-02-09T16:51:24.216Z,15.70
2023-02-09T16:53:51.713Z,16.20
2023-02-09T16:56:19.219Z,14.93
2023-02-09T16:58:46.757Z,14.03
2023-02-09T17:01:17.358Z,12.53
2023-02-09T17:03:55.692Z,12.97
2023-02-09T17:06:24.240Z,12.30
2023-02-09T17:08:51.094Z,9.83
2023-02-09T17:11:21.137Z,13.70
2023-02-09T17:13:48.205Z,10.13
2023-02-09T17:16:23.593Z,12.53
2023-02-09T17:18:51.954Z,12.60
2023-02-09T17:21:24.759Z,13.27
2023-02-09T17:23:52.520Z,12.13
2023-02-09T17:26:20.310Z,8.93
2023-02-09T17:28:47.173Z,12.53
2023-02-09T17:31:47.062Z,13.77
2023-02-09T17:34:19.020Z,13.05
2023-02-09T17:36:45.647Z,12.60
2023-02-09T17:39:13.734Z,17.40
2023-02-09T17:41:48.550Z,14.40
2023-02-09T17:44:31.907Z,14.40
2023-02-09T17:47:03.321Z,15.17
2023-02-09T17:49:30.001Z,11.43
2023-02-09T17:51:56.690Z,12.77
2023-02-09T17:54:23.335Z,13.23
2023-02-09T17:56:51.057Z,18.53
2023-02-09T17:59:20.128Z,16.43
2023-02-09T18:01:50.110Z,14.87
2023-02-09T18:04:19.247Z,14.30
2023-02-09T18:06:46.387Z,17.37
2023-02-09T18:09:13.727Z,13.67
2023-02-09T18:11:46.350Z,14.23
2023-02-09T18:14:16.711Z,16.17
2023-02-09T18:16:43.961Z,12.83
2023-02-09T18:19:11.391Z,15.33
2023-02-09T18:21:38.739Z,13.30
2023-02-09T18:24:06.182Z,14.17
2023-02-09T18:26:33.579Z,11.47
2023-02-09T18:29:00.326Z,14.20
2023-02-09T18:31:26.958Z,14.27
2023-02-09T18:33:54.099Z,12.00
2023-02-09T18:36:20.766Z,11.30
2023-02-09T18:38:51.531Z,13.40
2023-02-09T18:41:18.220Z,14.00
2023-02-09T18:43:45.023Z,10.50
2023-02-09T18:46:15.507Z,12.17
2023-02-09T18:48:42.316Z,12.80
2023-02-09T18:51:09.853Z,13.37
2023-02-09T18:53:40.054Z,13.53
2023-02-09T18:56:06.761Z,12.30
2023-02-09T18:58:33.372Z,12.30
2023-02-09T19:01:00.120Z,12.37
2023-02-09T19:03:27.016Z,10.60
2023-02-09T19:05:53.645Z,18.03
2023-02-09T19:08:20.331Z,11.20
2023-02-09T19:10:46.962Z,15.13
2023-02-09T19:13:13.699Z,14.23
2023-02-09T19:15:40.596Z,14.17
2023-02-09T19:18:07.370Z,15.40
2023-02-09T19:20:34.628Z,12.10
2023-02-09T19:23:02.472Z,17.07
2023-02-09T19:25:29.967Z,13.60
2023-02-09T19:27:56.932Z,15.53
2023-02-09T19:30:25.177Z,15.67
2023-02-09T19:33:00.237Z,13.17
2023-02-09T19:35:29.326Z,14.50
2023-02-09T19:37:57.032Z,14.63
2023-02-09T19:40:36.632Z,12.97
2023-02-09T19:43:04.300Z,12.10
2023-02-09T19:45:36.672Z,16.30
2023-02-09T19:48:08.207Z,19.97
2023-02-09T19:50:37.033Z,17.10
2023-02-09T19:53:05.443Z,14.13
2023-02-09T19:55:32.145Z,15.53
2023-02-09T19:57:59.303Z,13.73
2023-02-09T20:00:29.131Z,16.87
2023-02-09T20:02:56.942Z,14.27
2023-02-09T20:05:23.583Z,11.93
2023-02-09T20:07:53.721Z,13.70
2023-02-09T20:10:22.229Z,16.40
2023-02-09T20:12:50.009Z,15.90
2023-02-09T20:15:16.972Z,14.07
2023-02-09T20:17:44.560Z,17.20
2023-02-09T20:20:17.549Z,15.37
2023-02-09T20:22:44.401Z,15.77
2023-02-09T20:25:12.530Z,17.17
2023-02-09T20:27:41.093Z,14.47
2023-02-09T20:30:08.420Z,13.67
2023-02-09T20:32:36.697Z,19.10
2023-02-09T20:35:08.250Z,17.40
2023-02-09T20:37:34.936Z,17.13
2023-02-09T20:40:02.079Z,18.93
2023-02-09T20:42:47.611Z,15.40
2023-02-09T20:45:35.505Z,15.80
2023-02-09T20:48:02.506Z,15.33
2023-02-09T20:50:35.604Z,14.03
2023-02-09T20:53:02.614Z,15.33
2023-02-09T20:55:29.769Z,17.73
2023-02-09T20:57:58.839Z,18.17
2023-02-09T21:00:25.625Z,17.73
2023-02-09T21:02:52.270Z,16.97
2023-02-09T21:05:19.137Z,15.33
2023-02-09T21:07:46.046Z,14.70
2023-02-09T21:10:15.644Z,16.90
2023-02-09T21:12:47.028Z,14.43
2023-02-09T21:15:14.349Z,13.40
2023-02-09T21:17:47.560Z,16.83
2023-02-09T21:20:16.741Z,16.35
2023-02-09T21:22:43.643Z,16.13
2023-02-09T21:25:10.702Z,13.00
2023-02-09T21:27:37.366Z,16.40
2023-02-09T21:30:04.854Z,15.30
2023-02-09T21:32:34.858Z,14.73
2023-02-09T21:35:01.711Z,16.10
2023-02-09T21:37:32.313Z,22.07
2023-02-09T21:40:03.036Z,15.87
2023-02-09T21:42:31.213Z,18.80
2023-02-09T21:44:58.066Z,16.43
2023-02-09T21:47:26.581Z,19.00
2023-02-09T21:49:53.303Z,13.83
2023-02-09T21:52:20.107Z,18.27
2023-02-09T21:54:46.811Z,14.73
2023-02-09T21:57:13.409Z,14.77
2023-02-09T21:59:40.050Z,17.73
2023-02-09T22:02:07.196Z,20.20
2023-02-09T22:04:33.959Z,19.93
2023-02-09T22:07:02.497Z,17.40
2023-02-09T22:09:31.390Z,16.83
2023-02-09T22:11:57.981Z,16.80
2023-02-09T22:14:24.630Z,18.30
2023-02-09T22:16:51.310Z,17.77
2023-02-09T22:19:22.590Z,17.60
2023-02-09T22:21:52.371Z,16.65
2023-02-09T22:24:22.120Z,17.30
2023-02-09T22:26:48.836Z,20.17
2023-02-09T22:29:17.227Z,17.53
2023-02-09T22:31:46.793Z,16.33
2023-02-09T22:34:13.743Z,16.40
2023-02-09T22:36:42.673Z,16.50
2023-02-09T22:39:09.940Z,16.03
2023-02-09T22:41:36.867Z,16.93
2023-02-09T22:44:09.600Z,15.53
2023-02-09T22:46:47.578Z,17.10
2023-02-09T22:49:19.501Z,14.53
2023-02-09T22:51:49.829Z,19.10
2023-02-09T22:54:18.552Z,19.47
2023-02-09T22:56:45.687Z,16.70
2023-02-09T22:59:16.817Z,20.43
2023-02-09T23:01:44.314Z,22.00
2023-02-09T23:04:11.222Z,18.90
2023-02-09T23:06:37.924Z,19.17
2023-02-09T23:09:08.897Z,17.87
2023-02-09T23:11:36.263Z,16.73
2023-02-09T23:14:09.731Z,16.80
2023-02-09T23:19:06.298Z,18.17
2023-02-09T23:21:39.566Z,18.20
2023-02-09T23:24:08.159Z,19.17
2023-02-09T23:26:35.502Z,17.30
2023-02-09T23:29:06.744Z,20.03
2023-02-09T23:31:33.534Z,17.70
2023-02-09T23:34:00.244Z,19.10
2023-02-09T23:36:29.289Z,19.70
2023-02-09T23:38:58.809Z,18.00
2023-02-09T23:41:26.290Z,21.70
2023-02-09T23:43:53.131Z,20.23
2023-02-09T23:46:22.133Z,20.20
2023-02-09T23:48:53.138Z,20.70
2023-02-09T23:51:26.827Z,25.57
2023-02-09T23:53:55.165Z,21.55
2023-02-09T23:56:22.116Z,21.30
2023-02-09T23:58:50.264Z,20.90
